WZZ527D EPKK-LHBP
Flight info
| Callsign | WZZ527D |
|---|---|
| Flight time | N/A |
| Altitude | 28000 |
| Route | BABKO DCT NIDOK/N0427F270 DCT EDEMU |
| Aircraft | A321/M-SDE3FGHIRWY/LB1 |
Departure
| Time | 2026-05-06 19:56 |
|---|---|
| Airport | Kraków John Paul II International Airport (EPKK) |
Arrival
| Time | N/A |
|---|---|
| Airport | Budapest Liszt Ferenc International Airport (LHBP) |
| Time | Latitude | Longitude | Altitude | Speed | Heading |
|---|---|---|---|---|---|
| 2026-05-06 19:47 | 50.07505 | 19.80271 | 800 ft | 0 kts | 168° |
| 2026-05-06 19:52 | 50.07502 | 19.80272 | 800 ft | 3 kts | 168° |
| 2026-05-06 19:52 | 50.07455 | 19.80291 | 800 ft | 10 kts | 154° |
| 2026-05-06 19:52 | 50.07468 | 19.80379 | 800 ft | 11 kts | 33° |
| 2026-05-06 19:53 | 50.07555 | 19.80417 | 800 ft | 15 kts | 14° |
| 2026-05-06 19:53 | 50.07663 | 19.80399 | 800 ft | 17 kts | 347° |
| 2026-05-06 19:53 | 50.07768 | 19.80362 | 800 ft | 16 kts | 347° |
| 2026-05-06 19:53 | 50.07835 | 19.80339 | 800 ft | 2 kts | 349° |
| 2026-05-06 19:54 | 50.07839 | 19.80338 | 800 ft | 0 kts | 348° |
| 2026-05-06 19:55 | 50.07840 | 19.80338 | 800 ft | 1 kts | 348° |
| 2026-05-06 19:55 | 50.07889 | 19.80322 | 800 ft | 13 kts | 348° |
| 2026-05-06 19:55 | 50.08001 | 19.80271 | 800 ft | 17 kts | 319° |
| 2026-05-06 19:55 | 50.08001 | 19.80115 | 801 ft | 14 kts | 257° |
| 2026-05-06 19:56 | 50.07961 | 19.79832 | 800 ft | 57 kts | 257° |
| 2026-05-06 19:56 | 50.07826 | 19.78855 | 803 ft | 125 kts | 258° |
| 2026-05-06 19:56 | 50.07607 | 19.77282 | 850 ft | 169 kts | 258° |
| 2026-05-06 19:56 | 50.07354 | 19.75489 | 1512 ft | 170 kts | 258° |
| 2026-05-06 19:57 | 50.07100 | 19.73686 | 2144 ft | 174 kts | 259° |
| 2026-05-06 19:57 | 50.06833 | 19.71813 | 2697 ft | 181 kts | 258° |
| 2026-05-06 19:57 | 50.06546 | 19.69787 | 2934 ft | 203 kts | 258° |
| 2026-05-06 19:57 | 50.06230 | 19.67528 | 3149 ft | 224 kts | 257° |
| 2026-05-06 19:58 | 50.05620 | 19.65189 | 3296 ft | 248 kts | 231° |
| 2026-05-06 19:58 | 50.04209 | 19.63524 | 3670 ft | 263 kts | 198° |
| 2026-05-06 19:58 | 50.02423 | 19.62882 | 4398 ft | 265 kts | 191° |
| 2026-05-06 19:58 | 50.00618 | 19.62232 | 5241 ft | 266 kts | 193° |
| 2026-05-06 19:59 | 49.98821 | 19.61523 | 6084 ft | 267 kts | 195° |
| 2026-05-06 19:59 | 49.97013 | 19.60789 | 6867 ft | 269 kts | 196° |
| 2026-05-06 19:59 | 49.95184 | 19.60046 | 7592 ft | 273 kts | 196° |
| 2026-05-06 19:59 | 49.93338 | 19.59307 | 8330 ft | 275 kts | 195° |
| 2026-05-06 20:00 | 49.91467 | 19.58568 | 9039 ft | 279 kts | 195° |
| 2026-05-06 20:00 | 49.89596 | 19.57843 | 9727 ft | 282 kts | 195° |
| 2026-05-06 20:00 | 49.87661 | 19.57097 | 10186 ft | 296 kts | 196° |
| 2026-05-06 20:00 | 49.85581 | 19.56288 | 10341 ft | 319 kts | 195° |
| 2026-05-06 20:01 | 49.83359 | 19.55429 | 10470 ft | 340 kts | 195° |
| 2026-05-06 20:01 | 49.81012 | 19.54527 | 10824 ft | 352 kts | 195° |
| 2026-05-06 20:01 | 49.78622 | 19.53614 | 11456 ft | 356 kts | 195° |
| 2026-05-06 20:01 | 49.76208 | 19.52691 | 12133 ft | 358 kts | 195° |
| 2026-05-06 20:02 | 49.73782 | 19.51764 | 12796 ft | 361 kts | 196° |
| 2026-05-06 20:02 | 49.71335 | 19.50828 | 13446 ft | 363 kts | 196° |
| 2026-05-06 20:02 | 49.68875 | 19.49888 | 14071 ft | 366 kts | 195° |
| 2026-05-06 20:02 | 49.66396 | 19.48941 | 14664 ft | 368 kts | 195° |
| 2026-05-06 20:03 | 49.63895 | 19.47985 | 15284 ft | 371 kts | 196° |
| 2026-05-06 20:03 | 49.61427 | 19.46869 | 15857 ft | 373 kts | 202° |
| 2026-05-06 20:03 | 49.59080 | 19.45097 | 16442 ft | 374 kts | 211° |
| 2026-05-06 20:03 | 49.56824 | 19.43066 | 17039 ft | 377 kts | 211° |
| 2026-05-06 20:04 | 49.54546 | 19.41026 | 17616 ft | 380 kts | 211° |
| 2026-05-06 20:04 | 49.52248 | 19.38974 | 18187 ft | 383 kts | 211° |
| 2026-05-06 20:04 | 49.49933 | 19.36916 | 18718 ft | 386 kts | 211° |
| 2026-05-06 20:04 | 49.47596 | 19.34843 | 19234 ft | 389 kts | 211° |
| 2026-05-06 20:05 | 49.45248 | 19.32765 | 19727 ft | 392 kts | 211° |
| 2026-05-06 20:05 | 49.42875 | 19.30666 | 20188 ft | 395 kts | 211° |
| 2026-05-06 20:05 | 49.40480 | 19.28548 | 20663 ft | 398 kts | 211° |
| 2026-05-06 20:05 | 49.38070 | 19.26416 | 21115 ft | 401 kts | 211° |
| 2026-05-06 20:06 | 49.35646 | 19.24273 | 21548 ft | 404 kts | 211° |
| 2026-05-06 20:06 | 49.33233 | 19.22141 | 21963 ft | 406 kts | 211° |
| 2026-05-06 20:06 | 49.30776 | 19.19975 | 22364 ft | 409 kts | 211° |
| 2026-05-06 20:06 | 49.28299 | 19.17796 | 22764 ft | 412 kts | 211° |
| 2026-05-06 20:07 | 49.25807 | 19.15607 | 23164 ft | 414 kts | 211° |
| 2026-05-06 20:07 | 49.23298 | 19.13403 | 23571 ft | 417 kts | 211° |
| 2026-05-06 20:07 | 49.20778 | 19.11189 | 23788 ft | 418 kts | 211° |
| 2026-05-06 20:07 | 49.18248 | 19.08973 | 23851 ft | 419 kts | 211° |
| 2026-05-06 20:08 | 49.15720 | 19.06764 | 23848 ft | 418 kts | 211° |
| 2026-05-06 20:08 | 49.13198 | 19.04562 | 23841 ft | 418 kts | 211° |
| 2026-05-06 20:08 | 49.10669 | 19.02356 | 23845 ft | 418 kts | 211° |
| 2026-05-06 20:08 | 49.08145 | 19.00152 | 23849 ft | 418 kts | 211° |
| 2026-05-06 20:09 | 49.05623 | 18.97949 | 23850 ft | 418 kts | 211° |
| 2026-05-06 20:09 | 49.03095 | 18.95749 | 23850 ft | 418 kts | 211° |
| 2026-05-06 20:09 | 49.00566 | 18.93559 | 23850 ft | 418 kts | 211° |
| 2026-05-06 20:09 | 48.98037 | 18.91369 | 23852 ft | 418 kts | 211° |
| 2026-05-06 20:10 | 48.95525 | 18.89189 | 23851 ft | 418 kts | 211° |
| 2026-05-06 20:10 | 48.92840 | 18.87408 | 23851 ft | 421 kts | 199° |
| 2026-05-06 20:10 | 48.89951 | 18.86610 | 23850 ft | 425 kts | 186° |
| 2026-05-06 20:10 | 48.86982 | 18.86878 | 23849 ft | 431 kts | 172° |
| 2026-05-06 20:11 | 48.84103 | 18.88217 | 23851 ft | 437 kts | 159° |
| 2026-05-06 20:11 | 48.81481 | 18.90597 | 23851 ft | 444 kts | 145° |
| 2026-05-06 20:11 | 48.79192 | 18.93770 | 23863 ft | 447 kts | 140° |
| 2026-05-06 20:11 | 48.76940 | 18.97026 | 23858 ft | 447 kts | 140° |
| 2026-05-06 20:12 | 48.74712 | 19.00223 | 23862 ft | 447 kts | 140° |
| 2026-05-06 20:12 | 48.72421 | 19.03495 | 23861 ft | 447 kts | 140° |
| 2026-05-06 20:12 | 48.70162 | 19.06718 | 23862 ft | 447 kts | 140° |
| 2026-05-06 20:12 | 48.67894 | 19.09942 | 23870 ft | 447 kts | 140° |
| 2026-05-06 20:13 | 48.65629 | 19.13160 | 23868 ft | 447 kts | 140° |
| 2026-05-06 20:13 | 48.63366 | 19.16372 | 23869 ft | 447 kts | 140° |
| 2026-05-06 20:13 | 48.61100 | 19.19590 | 23872 ft | 447 kts | 140° |
| 2026-05-06 20:13 | 48.58836 | 19.22804 | 23887 ft | 447 kts | 140° |
| 2026-05-06 20:14 | 48.56599 | 19.25978 | 23887 ft | 446 kts | 140° |
| 2026-05-06 20:14 | 48.54339 | 19.29175 | 23888 ft | 445 kts | 140° |
| 2026-05-06 20:14 | 48.52078 | 19.32368 | 23898 ft | 445 kts | 140° |
| 2026-05-06 20:14 | 48.49814 | 19.35564 | 23896 ft | 445 kts | 140° |
| 2026-05-06 20:15 | 48.47552 | 19.38754 | 23897 ft | 445 kts | 140° |
| 2026-05-06 20:15 | 48.45287 | 19.41943 | 23905 ft | 445 kts | 140° |
| 2026-05-06 20:15 | 48.43024 | 19.45121 | 23906 ft | 445 kts | 140° |
| 2026-05-06 20:15 | 48.40757 | 19.48301 | 23906 ft | 445 kts | 140° |
| 2026-05-06 20:16 | 48.38496 | 19.51471 | 23905 ft | 445 kts | 140° |
| 2026-05-06 20:16 | 48.36231 | 19.54641 | 23906 ft | 444 kts | 140° |
| 2026-05-06 20:16 | 48.33967 | 19.57806 | 23903 ft | 444 kts | 140° |
| 2026-05-06 20:16 | 48.31702 | 19.60973 | 23904 ft | 444 kts | 139° |
| 2026-05-06 20:17 | 48.29440 | 19.64133 | 23914 ft | 444 kts | 139° |
| 2026-05-06 20:17 | 48.27178 | 19.67290 | 23913 ft | 444 kts | 139° |
| 2026-05-06 20:17 | 48.24915 | 19.70440 | 23915 ft | 444 kts | 139° |
| 2026-05-06 20:17 | 48.22657 | 19.73520 | 23915 ft | 443 kts | 143° |
| 2026-05-06 20:18 | 48.20126 | 19.76107 | 23916 ft | 439 kts | 154° |
| 2026-05-06 20:18 | 48.17343 | 19.77942 | 23915 ft | 436 kts | 164° |
| 2026-05-06 20:18 | 48.14407 | 19.78987 | 23917 ft | 433 kts | 174° |
| 2026-05-06 20:18 | 48.11412 | 19.79221 | 23916 ft | 430 kts | 184° |
| 2026-05-06 20:19 | 48.08446 | 19.78701 | 23927 ft | 428 kts | 191° |
| 2026-05-06 20:19 | 48.05504 | 19.78003 | 23924 ft | 429 kts | 191° |
| 2026-05-06 20:19 | 48.02551 | 19.77314 | 23925 ft | 429 kts | 190° |
| 2026-05-06 20:19 | 47.99595 | 19.76630 | 23925 ft | 429 kts | 190° |
| 2026-05-06 20:20 | 47.96651 | 19.75944 | 23925 ft | 429 kts | 191° |
| 2026-05-06 20:20 | 47.93672 | 19.75248 | 23612 ft | 437 kts | 190° |
| 2026-05-06 20:20 | 47.90669 | 19.74550 | 23028 ft | 435 kts | 190° |
| 2026-05-06 20:20 | 47.87693 | 19.73860 | 22426 ft | 430 kts | 191° |
| 2026-05-06 20:21 | 47.84760 | 19.73179 | 21826 ft | 424 kts | 191° |
| 2026-05-06 20:21 | 47.81883 | 19.72374 | 21221 ft | 416 kts | 198° |
| 2026-05-06 20:21 | 47.79279 | 19.70632 | 20621 ft | 408 kts | 214° |
| 2026-05-06 20:21 | 47.77135 | 19.67939 | 20023 ft | 402 kts | 229° |
| 2026-05-06 20:22 | 47.75578 | 19.64526 | 19421 ft | 398 kts | 244° |
| 2026-05-06 20:22 | 47.74709 | 19.60700 | 18818 ft | 387 kts | 258° |
| 2026-05-06 20:22 | 47.74545 | 19.56766 | 18219 ft | 378 kts | 272° |
| 2026-05-06 20:22 | 47.75051 | 19.52983 | 17613 ft | 370 kts | 287° |
| 2026-05-06 20:23 | 47.76148 | 19.49570 | 17019 ft | 364 kts | 300° |
| 2026-05-06 20:23 | 47.77750 | 19.46695 | 16416 ft | 360 kts | 314° |
| 2026-05-06 20:23 | 47.79748 | 19.44509 | 15836 ft | 355 kts | 329° |
| 2026-05-06 20:23 | 47.81979 | 19.43174 | 15757 ft | 336 kts | 343° |
| 2026-05-06 20:24 | 47.84361 | 19.42783 | 15012 ft | 365 kts | 4° |
| 2026-05-06 20:24 | 47.86852 | 19.43867 | 14654 ft | 383 kts | 27° |
| 2026-05-06 20:24 | 47.88956 | 19.46306 | 14469 ft | 389 kts | 50° |
| 2026-05-06 20:24 | 47.90303 | 19.49767 | 14276 ft | 386 kts | 74° |
| 2026-05-06 20:25 | 47.90651 | 19.53618 | 14082 ft | 380 kts | 97° |
| 2026-05-06 20:25 | 47.90001 | 19.57411 | 13892 ft | 371 kts | 119° |
| 2026-05-06 20:25 | 47.88529 | 19.60433 | 13706 ft | 363 kts | 140° |
| 2026-05-06 20:25 | 47.86453 | 19.62459 | 13524 ft | 355 kts | 161° |
| 2026-05-06 20:26 | 47.84077 | 19.63249 | 13342 ft | 349 kts | 180° |
| 2026-05-06 20:26 | 47.81694 | 19.62770 | 13158 ft | 345 kts | 200° |
| 2026-05-06 20:26 | 47.79507 | 19.61325 | 12973 ft | 344 kts | 206° |
| 2026-05-06 20:26 | 47.77358 | 19.59778 | 12793 ft | 343 kts | 206° |
| 2026-05-06 20:27 | 47.75223 | 19.58245 | 12614 ft | 342 kts | 206° |
| 2026-05-06 20:27 | 47.73072 | 19.56700 | 12430 ft | 340 kts | 206° |
| 2026-05-06 20:27 | 47.70986 | 19.55190 | 12270 ft | 324 kts | 208° |
| 2026-05-06 20:27 | 47.69140 | 19.53448 | 12145 ft | 306 kts | 217° |
| 2026-05-06 20:28 | 47.67579 | 19.51430 | 12019 ft | 290 kts | 222° |
| 2026-05-06 20:28 | 47.66135 | 19.49447 | 11892 ft | 276 kts | 222° |
| 2026-05-06 20:28 | 47.64752 | 19.47564 | 11699 ft | 265 kts | 222° |
| 2026-05-06 20:28 | 47.63415 | 19.45746 | 11456 ft | 258 kts | 222° |
| 2026-05-06 20:29 | 47.62522 | 19.44534 | 11287 ft | 256 kts | 221° |
| 2026-05-06 20:29 | 47.61212 | 19.42757 | 11037 ft | 254 kts | 222° |
| 2026-05-06 20:29 | 47.59926 | 19.41015 | 10794 ft | 253 kts | 221° |
| 2026-05-06 20:29 | 47.58625 | 19.39254 | 10539 ft | 252 kts | 222° |
| 2026-05-06 20:30 | 47.57332 | 19.37501 | 10283 ft | 252 kts | 222° |
| 2026-05-06 20:30 | 47.54769 | 19.33948 | 9861 ft | 250 kts | 229° |
| 2026-05-06 20:30 | 47.53990 | 19.31650 | 9742 ft | 255 kts | 258° |
| 2026-05-06 20:31 | 47.54119 | 19.29036 | 9608 ft | 264 kts | 287° |
| 2026-05-06 20:31 | 47.55151 | 19.26757 | 9490 ft | 269 kts | 308° |
| 2026-05-06 20:31 | 47.56413 | 19.24705 | 9354 ft | 269 kts | 308° |
| 2026-05-06 20:31 | 47.57690 | 19.22656 | 9239 ft | 270 kts | 308° |
| 2026-05-06 20:32 | 47.58977 | 19.20592 | 8888 ft | 273 kts | 309° |
| 2026-05-06 20:32 | 47.60259 | 19.18517 | 8463 ft | 272 kts | 308° |
| 2026-05-06 20:32 | 47.61544 | 19.16435 | 8158 ft | 273 kts | 309° |
| 2026-05-06 20:32 | 47.62806 | 19.14384 | 7860 ft | 269 kts | 308° |
| 2026-05-06 20:33 | 47.64075 | 19.12327 | 7491 ft | 270 kts | 308° |
| 2026-05-06 20:33 | 47.65332 | 19.10272 | 7171 ft | 268 kts | 305° |
| 2026-05-06 20:33 | 47.66151 | 19.07893 | 6830 ft | 254 kts | 276° |
| 2026-05-06 20:33 | 47.66050 | 19.05358 | 6380 ft | 243 kts | 247° |
| 2026-05-06 20:34 | 47.65150 | 19.03305 | 5871 ft | 237 kts | 221° |
| 2026-05-06 20:34 | 47.63928 | 19.01669 | 5243 ft | 236 kts | 220° |
| 2026-05-06 20:34 | 47.62603 | 19.00404 | 5012 ft | 222 kts | 202° |
| 2026-05-06 20:34 | 47.61107 | 18.99831 | 4657 ft | 222 kts | 185° |
| 2026-05-06 20:35 | 47.59572 | 18.99998 | 4444 ft | 222 kts | 167° |
| 2026-05-06 20:35 | 47.58139 | 19.00879 | 4206 ft | 226 kts | 150° |
| 2026-05-06 20:35 | 47.56951 | 19.02425 | 3930 ft | 229 kts | 136° |
| 2026-05-06 20:35 | 47.55882 | 19.04174 | 3625 ft | 228 kts | 136° |
| 2026-05-06 20:36 | 47.54851 | 19.05859 | 3369 ft | 219 kts | 135° |
| 2026-05-06 20:36 | 47.53867 | 19.07467 | 3056 ft | 203 kts | 136° |
| 2026-05-06 20:36 | 47.52944 | 19.08971 | 2799 ft | 186 kts | 136° |
| 2026-05-06 20:36 | 47.52107 | 19.10333 | 2550 ft | 172 kts | 137° |
| 2026-05-06 20:37 | 47.51333 | 19.11591 | 2337 ft | 165 kts | 138° |
| 2026-05-06 20:37 | 47.50566 | 19.12835 | 2133 ft | 160 kts | 138° |
| 2026-05-06 20:37 | 47.49833 | 19.14025 | 1904 ft | 154 kts | 139° |
| 2026-05-06 20:37 | 47.49117 | 19.15185 | 1711 ft | 152 kts | 139° |
| 2026-05-06 20:38 | 47.48406 | 19.16348 | 1464 ft | 152 kts | 138° |
| 2026-05-06 20:38 | 47.47700 | 19.17523 | 1301 ft | 154 kts | 138° |
| 2026-05-06 20:38 | 47.46978 | 19.18685 | 1090 ft | 153 kts | 137° |
| 2026-05-06 20:38 | 47.46262 | 19.19839 | 876 ft | 152 kts | 135° |
| 2026-05-06 20:39 | 47.45553 | 19.20988 | 679 ft | 150 kts | 134° |
| 2026-05-06 20:39 | 47.44848 | 19.22118 | 488 ft | 150 kts | 134° |
| 2026-05-06 20:39 | 47.44204 | 19.23160 | 455 ft | 119 kts | 133° |
| 2026-05-06 20:39 | 47.43763 | 19.23872 | 455 ft | 70 kts | 132° |
| 2026-05-06 20:40 | 47.48833 | 19.15647 | 452 ft | 156 kts | 139° |
| 2026-05-06 20:40 | 47.45333 | 19.21341 | 629 ft | 150 kts | 135° |
| 2026-05-06 20:40 | 47.44632 | 19.22469 | 461 ft | 144 kts | 134° |
| 2026-05-06 20:40 | 47.44220 | 19.23135 | 455 ft | 121 kts | 133° |